Strona główna
METAR-TAF:

METAR-TAF

Lotnisko :

Monte Scuro, Włochy

Szerokość geograficzna: 39-20N, Długość geograficzna: 016-24E, wysokość: 1710 m

Aktualna obserwacja pogody

Raport powstał 29 minut temu, godzina 04:03 UTC
Wiatr 6 kt z kierunków zmiennych
Temperatura 0°C
Wilgotność 100%
Ciśnienie 1007 hPa
Widzialność poniżej 50 m
burza, słaby deszcz, mgła

METAR: LIBQ 010403Z VRB06KT 0000 -TSRA FG VV/// 00/00 Q1007 RMK MON INVIS VAL INVIS VIS MIN 0000

czas: 06:32 (04:32 UTC)


TAF: brakujący

Obserwacja i prognoza pogody dla ponad 4000 lotnisk (raport METAR i TAF).

Dostępne stacje oznaczono żółtymi i czerwonymi punktami na mapie.

Najedź kursorem aby zobaczyć nazwę stacji.

Kliknij aby zobaczyć obserwacje i prognozy pogody.

Aby zmienić mapę: kliknij na zielony przycisk z czarnym krzyżykiem, aby powiększyć; na zielony przycisk z myślnikiem, aby pomniejszyć; na zielone strzałki, aby przejść do map sąsiednich.


METAR-TAF: